Time;durP1;ratioP1;P1;durP2;ratioP2;P2;SDS_P1;SDS_P2;PMS_P1;PMS_P2;Temp;Humidity;BMP_temperature;BMP_pressure;BME280_temperature;BME280_humidity;BME280_pressure;Samples;Min_cycle;Max_cycle;Signal;HPM_P1;HPM_P2
2024/02/19 00:01:51;;;;;;;1.70;1.70;;;10.90;99.90;;;;;;5064351;28;20486;-79
2024/02/19 00:04:19;;;;;;;1.60;1.60;;;10.90;1.00;;;;;;5082121;28;20485;-79
2024/02/19 00:06:48;;;;;;;1.70;1.70;;;11.00;1.00;;;;;;5066201;28;20466;-78
2024/02/19 00:09:17;;;;;;;1.90;1.90;;;11.00;99.90;;;;;;5063437;28;20455;-78
2024/02/19 00:11:46;;;;;;;1.80;1.80;;;11.00;1.00;;;;;;5065343;28;20872;-80
2024/02/19 00:14:14;;;;;;;1.80;1.80;;;11.00;99.90;;;;;;5064575;28;20459;-78
2024/02/19 00:16:43;;;;;;;1.70;1.70;;;11.10;99.90;;;;;;5064871;28;20865;-79
2024/02/19 00:19:12;;;;;;;1.83;1.73;;;11.10;99.90;;;;;;5065001;28;20435;-81
2024/02/19 00:21:40;;;;;;;1.90;1.90;;;11.00;99.90;;;;;;5062886;28;20594;-78
2024/02/19 00:24:08;;;;;;;1.63;1.63;;;11.00;99.90;;;;;;5062560;28;20465;-81
2024/02/19 00:26:37;;;;;;;1.73;1.70;;;10.90;1.00;;;;;;5064445;28;20439;-76
2024/02/19 00:29:06;;;;;;;1.80;1.80;;;10.90;1.00;;;;;;5063702;28;20479;-79
2024/02/19 00:31:34;;;;;;;1.73;1.73;;;10.90;1.00;;;;;;5064520;28;20471;-81
2024/02/19 00:34:05;;;;;;;1.63;1.63;;;11.00;1.00;;;;;;5065191;28;20452;-81
2024/02/19 00:36:33;;;;;;;1.80;1.80;;;11.00;1.00;;;;;;5064963;28;20537;-81
2024/02/19 00:39:01;;;;;;;1.70;1.70;;;11.10;1.00;;;;;;5062779;28;20479;-79
2024/02/19 00:41:30;;;;;;;1.67;1.67;;;11.00;1.00;;;;;;5061998;28;20578;-81
2024/02/19 00:43:58;;;;;;;1.70;1.70;;;11.10;1.00;;;;;;5062737;28;20503;-79
2024/02/19 00:46:26;;;;;;;1.80;1.80;;;11.00;1.00;;;;;;5062307;28;20543;-79
2024/02/19 00:48:54;;;;;;;1.80;1.80;;;11.00;1.00;;;;;;5066147;28;20451;-79
2024/02/19 00:51:24;;;;;;;1.90;1.90;;;11.00;1.00;;;;;;5067290;28;20821;-78
2024/02/19 00:53:52;;;;;;;1.80;1.80;;;10.90;1.00;;;;;;5063189;28;20446;-78
2024/02/19 00:56:20;;;;;;;1.70;1.70;;;10.90;1.00;;;;;;5062765;28;20470;-78
2024/02/19 00:58:48;;;;;;;1.70;1.70;;;10.90;1.00;;;;;;5064597;28;20487;-79
2024/02/19 01:01:16;;;;;;;1.80;1.80;;;10.90;1.00;;;;;;5064647;28;21207;-81
2024/02/19 01:03:45;;;;;;;1.70;1.70;;;11.00;1.00;;;;;;5062510;28;20508;-80
2024/02/19 01:06:13;;;;;;;1.80;1.80;;;11.00;1.00;;;;;;5064134;28;20474;-78
2024/02/19 01:08:43;;;;;;;1.80;1.80;;;11.00;1.00;;;;;;5066965;28;20973;-79
2024/02/19 01:11:11;;;;;;;1.90;1.90;;;11.00;1.00;;;;;;5065070;28;20456;-78
2024/02/19 01:13:41;;;;;;;2.00;2.00;;;11.10;1.00;;;;;;5064604;28;21000;-80
2024/02/19 01:16:10;;;;;;;2.00;2.00;;;11.00;1.00;;;;;;5061532;28;21180;-79
2024/02/19 01:18:38;;;;;;;2.00;2.00;;;10.90;1.00;;;;;;5062686;28;20453;-81
2024/02/19 01:21:07;;;;;;;1.90;1.90;;;10.90;5.60;;;;;;5062134;28;20527;-79
2024/02/19 01:23:36;;;;;;;1.80;1.80;;;10.80;84.90;;;;;;5063689;28;20455;-79
2024/02/19 01:26:06;;;;;;;1.90;1.90;;;10.90;99.90;;;;;;5063679;28;20439;-79
2024/02/19 01:28:34;;;;;;;2.10;2.10;;;10.90;93.60;;;;;;5061636;28;20527;-79
2024/02/19 01:31:02;;;;;;;1.90;1.90;;;11.00;57.40;;;;;;5059805;28;20506;-81
2024/02/19 01:33:30;;;;;;;1.80;1.80;;;11.00;1.00;;;;;;5061883;28;20452;-78
2024/02/19 01:35:59;;;;;;;1.90;1.90;;;10.90;89.20;;;;;;5059855;28;20464;-80
2024/02/19 01:38:27;;;;;;;1.97;1.97;;;10.90;1.00;;;;;;5063918;28;21026;-81
2024/02/19 01:40:55;;;;;;;1.80;1.80;;;10.80;97.30;;;;;;5062330;28;20554;-76
2024/02/19 01:43:25;;;;;;;1.90;1.90;;;10.80;99.90;;;;;;5061759;28;20477;-79
2024/02/19 01:45:54;;;;;;;2.10;2.00;;;10.80;99.90;;;;;;5062137;28;20869;-79
2024/02/19 01:48:22;;;;;;;1.80;1.80;;;10.80;99.90;;;;;;5062706;28;20456;-78
2024/02/19 01:50:51;;;;;;;1.80;1.80;;;10.80;99.90;;;;;;5061876;28;20490;-82
2024/02/19 01:53:19;;;;;;;2.10;2.10;;;10.90;99.90;;;;;;5056705;28;20546;-79
2024/02/19 01:55:49;;;;;;;2.37;2.27;;;11.00;99.90;;;;;;5060300;28;20448;-79
2024/02/19 01:58:17;;;;;;;2.00;2.00;;;11.00;1.00;;;;;;5063264;28;20436;-77
2024/02/19 02:00:47;;;;;;;1.90;1.90;;;10.90;29.10;;;;;;5061665;28;20464;-78
2024/02/19 02:03:19;;;;;;;1.90;1.90;;;11.00;99.90;;;;;;5064555;28;20447;-79
2024/02/19 02:05:48;;;;;;;1.90;1.90;;;11.00;85.10;;;;;;5059073;28;20474;-79
2024/02/19 02:08:17;;;;;;;2.07;2.07;;;11.00;99.90;;;;;;5059828;28;20437;-78
2024/02/19 02:10:46;;;;;;;2.00;2.00;;;11.10;98.20;;;;;;5061836;28;20546;-81
2024/02/19 02:13:16;;;;;;;2.00;2.00;;;11.00;76.00;;;;;;5060470;28;20454;-80
2024/02/19 02:15:44;;;;;;;2.10;2.10;;;11.00;72.40;;;;;;5061210;28;20533;-80
2024/02/19 02:18:15;;;;;;;2.00;2.00;;;11.00;99.90;;;;;;5063073;28;20916;-78
2024/02/19 02:20:45;;;;;;;2.10;2.00;;;11.00;99.90;;;;;;5061339;28;20474;-81
2024/02/19 02:23:16;;;;;;;2.00;2.00;;;10.90;99.90;;;;;;5064411;28;20554;-79
2024/02/19 02:25:44;;;;;;;2.07;2.07;;;11.00;99.90;;;;;;5057319;28;20476;-79
2024/02/19 02:28:14;;;;;;;2.00;2.00;;;10.90;99.90;;;;;;5063182;28;20462;-79
2024/02/19 02:30:42;;;;;;;2.30;2.20;;;10.90;99.90;;;;;;5061763;28;20892;-79
2024/02/19 02:33:11;;;;;;;2.10;2.10;;;11.00;99.90;;;;;;5062474;28;20443;-78
2024/02/19 02:35:39;;;;;;;2.20;2.20;;;11.00;99.90;;;;;;5060623;28;20503;-80
2024/02/19 02:38:08;;;;;;;2.30;2.30;;;10.90;99.90;;;;;;5061710;28;20439;-78
2024/02/19 02:40:37;;;;;;;2.20;2.20;;;11.00;99.90;;;;;;5062131;28;21300;-82
2024/02/19 02:43:05;;;;;;;2.30;2.30;;;10.90;99.90;;;;;;5059415;28;20474;-77
2024/02/19 02:45:35;;;;;;;2.80;2.30;;;10.90;99.90;;;;;;5063708;28;20471;-79
2024/02/19 02:48:03;;;;;;;2.20;2.20;;;10.80;1.00;;;;;;5061752;28;20487;-80
2024/02/19 02:50:32;;;;;;;2.30;2.20;;;10.80;1.00;;;;;;5059875;28;20528;-78
2024/02/19 02:53:00;;;;;;;2.30;2.20;;;10.80;1.00;;;;;;5060755;28;20443;-78
2024/02/19 02:55:28;;;;;;;2.50;2.50;;;10.90;99.90;;;;;;5056693;28;20447;-80
2024/02/19 02:57:56;;;;;;;2.60;2.40;;;10.90;1.00;;;;;;5060126;28;20458;-77
2024/02/19 03:00:26;;;;;;;2.30;2.30;;;10.90;90.80;;;;;;5062882;28;20467;-80
2024/02/19 03:02:55;;;;;;;2.20;2.20;;;10.90;1.00;;;;;;5056207;28;20483;-80
2024/02/19 03:05:23;;;;;;;2.50;2.50;;;10.90;1.00;;;;;;5062162;28;21026;-80
2024/02/19 03:07:51;;;;;;;2.67;2.60;;;10.90;37.60;;;;;;5061137;28;20450;-79
2024/02/19 03:10:20;;;;;;;2.77;2.67;;;10.90;1.00;;;;;;5062584;28;20517;-80
2024/02/19 03:12:48;;;;;;;2.50;2.50;;;10.90;1.00;;;;;;5065066;28;20558;-79
2024/02/19 03:15:16;;;;;;;2.70;2.60;;;10.80;1.00;;;;;;5060777;28;20539;-79
2024/02/19 03:17:45;;;;;;;2.50;2.50;;;10.80;22.90;;;;;;5057437;28;20458;-78
2024/02/19 03:20:18;;;;;;;2.70;2.60;;;10.90;95.70;;;;;;5061376;28;20584;-78
2024/02/19 03:22:47;;;;;;;2.63;2.63;;;10.90;1.00;;;;;;5063631;28;20500;-80
2024/02/19 03:25:15;;;;;;;3.00;2.90;;;10.90;99.90;;;;;;5063625;28;20498;-83
2024/02/19 03:27:43;;;;;;;2.63;2.63;;;10.90;99.90;;;;;;5064822;28;20450;-80
2024/02/19 03:30:13;;;;;;;2.63;2.60;;;10.80;99.90;;;;;;5065232;28;21452;-81
2024/02/19 03:32:42;;;;;;;3.00;2.90;;;10.80;1.00;;;;;;5065145;28;20532;-80
2024/02/19 03:35:10;;;;;;;3.00;2.90;;;10.80;1.00;;;;;;5065320;28;20444;-79
2024/02/19 03:37:39;;;;;;;2.60;2.60;;;10.80;99.90;;;;;;5062595;28;20495;-80
2024/02/19 03:40:09;;;;;;;2.87;2.77;;;10.80;99.90;;;;;;5065823;28;20462;-78
2024/02/19 03:42:37;;;;;;;3.10;3.00;;;10.80;99.90;;;;;;5064157;28;20462;-80
2024/02/19 03:45:06;;;;;;;3.00;2.90;;;10.90;1.00;;;;;;5064403;28;20498;-80
2024/02/19 03:47:35;;;;;;;3.27;3.17;;;10.90;99.90;;;;;;5062698;28;20968;-79
2024/02/19 03:50:04;;;;;;;3.10;3.00;;;10.90;99.90;;;;;;5066626;28;20475;-81
2024/02/19 03:52:32;;;;;;;3.20;3.10;;;10.90;99.90;;;;;;5062450;28;20505;-80
2024/02/19 03:55:02;;;;;;;4.00;3.70;;;10.90;1.00;;;;;;5065220;28;20462;-78
2024/02/19 03:57:30;;;;;;;3.17;3.07;;;10.80;99.90;;;;;;5063147;28;20443;-78
2024/02/19 03:59:59;;;;;;;3.07;2.97;;;10.80;99.90;;;;;;5062770;28;20478;-80
2024/02/19 04:02:27;;;;;;;2.97;2.87;;;10.80;99.90;;;;;;5065179;28;20446;-80
2024/02/19 04:04:55;;;;;;;3.40;3.30;;;10.90;99.90;;;;;;5064127;28;20451;-79
2024/02/19 04:07:24;;;;;;;3.27;3.17;;;10.90;99.90;;;;;;5064439;28;21206;-79
2024/02/19 04:09:52;;;;;;;3.30;3.20;;;10.90;99.90;;;;;;5063333;28;20464;-79
2024/02/19 04:12:22;;;;;;;3.90;3.80;;;10.90;99.90;;;;;;5064101;28;20494;-77
2024/02/19 04:14:50;;;;;;;3.30;3.20;;;10.90;99.90;;;;;;5064239;28;20471;-77
2024/02/19 04:17:18;;;;;;;3.63;3.53;;;10.80;1.00;;;;;;5064957;28;20537;-79
2024/02/19 04:19:47;;;;;;;3.70;3.60;;;10.80;1.00;;;;;;5064421;28;20551;-80
2024/02/19 04:22:15;;;;;;;3.77;3.67;;;10.90;41.60;;;;;;5064194;28;20538;-79
2024/02/19 04:24:43;;;;;;;3.60;3.50;;;10.80;1.00;;;;;;5065228;28;20467;-79
2024/02/19 04:27:13;;;;;;;3.60;3.50;;;10.80;1.00;;;;;;5062877;28;21044;-82
2024/02/19 04:29:45;;;;;;;3.57;3.47;;;10.70;99.90;;;;;;5066838;28;20538;-79
2024/02/19 04:32:13;;;;;;;3.87;3.70;;;10.70;1.00;;;;;;5064702;28;20439;-80
2024/02/19 04:34:41;;;;;;;3.93;3.83;;;10.80;99.90;;;;;;5064736;28;20453;-79
2024/02/19 04:37:10;;;;;;;3.80;3.70;;;10.80;99.90;;;;;;5063597;28;20451;-81
2024/02/19 04:39:38;;;;;;;3.90;3.80;;;10.80;99.90;;;;;;5060477;28;20467;-81
2024/02/19 04:42:06;;;;;;;3.90;3.70;;;10.70;99.90;;;;;;5063396;28;20447;-80
2024/02/19 04:44:35;;;;;;;4.23;4.00;;;10.70;99.90;;;;;;5062731;28;20447;-79
2024/02/19 04:47:04;;;;;;;3.90;3.80;;;10.70;99.90;;;;;;5061189;28;20467;-77
2024/02/19 04:49:32;;;;;;;3.90;3.80;;;10.70;1.00;;;;;;5064103;28;20439;-81
2024/02/19 04:52:01;;;;;;;4.20;4.10;;;10.60;1.00;;;;;;5062711;28;20452;-78
2024/02/19 04:54:29;;;;;;;4.60;4.20;;;10.60;1.00;;;;;;5060411;28;20455;-78
2024/02/19 04:56:58;;;;;;;4.70;4.40;;;10.60;1.00;;;;;;5060193;28;20552;-77
2024/02/19 04:59:26;;;;;;;4.83;4.47;;;10.70;99.90;;;;;;5060869;28;20466;-79
2024/02/19 05:01:55;;;;;;;4.40;4.20;;;10.70;99.90;;;;;;5056159;28;21012;-82
2024/02/19 05:04:26;;;;;;;5.23;4.93;;;10.70;99.90;;;;;;5061220;28;20555;-78
2024/02/19 05:06:54;;;;;;;4.93;4.60;;;10.70;54.90;;;;;;5058260;28;20475;-78
2024/02/19 05:09:23;;;;;;;4.73;4.43;;;10.70;80.80;;;;;;5061978;28;20456;-81
2024/02/19 05:11:51;;;;;;;4.63;4.47;;;10.70;1.00;;;;;;5061654;28;20511;-83
2024/02/19 05:14:19;;;;;;;4.43;4.07;;;10.70;1.00;;;;;;5062883;28;20465;-78
2024/02/19 05:16:47;;;;;;;4.60;4.40;;;10.70;99.90;;;;;;5061211;28;20522;-78
2024/02/19 05:19:15;;;;;;;5.00;4.70;;;10.70;99.90;;;;;;5058805;28;21179;-80
2024/02/19 05:21:47;;;;;;;4.97;4.63;;;10.60;99.90;;;;;;5059533;28;20514;-77
2024/02/19 05:24:17;;;;;;;4.20;4.00;;;10.70;99.90;;;;;;5063093;28;20443;-80
2024/02/19 05:26:46;;;;;;;4.37;4.10;;;10.70;99.90;;;;;;5060491;28;20490;-79
2024/02/19 05:29:14;;;;;;;4.10;3.87;;;10.70;99.90;;;;;;5064409;28;20451;-77
2024/02/19 05:31:42;;;;;;;3.90;3.70;;;10.70;1.00;;;;;;5061205;28;20470;-79
2024/02/19 05:34:10;;;;;;;4.67;4.47;;;10.70;1.00;;;;;;5059616;28;20459;-79
2024/02/19 05:36:38;;;;;;;5.30;4.80;;;10.70;1.00;;;;;;5059790;28;20458;-78
2024/02/19 05:39:10;;;;;;;4.60;4.40;;;10.70;1.00;;;;;;5059611;28;20451;-79
2024/02/19 05:41:39;;;;;;;5.70;5.23;;;10.70;1.00;;;;;;5058100;28;20493;-79
2024/02/19 05:44:08;;;;;;;5.83;5.53;;;10.70;1.00;;;;;;5061347;28;21034;-78
2024/02/19 05:46:36;;;;;;;5.40;5.00;;;10.70;1.00;;;;;;5058673;28;21052;-77
2024/02/19 05:49:04;;;;;;;5.50;5.10;;;10.70;99.90;;;;;;5060114;28;20470;-78
2024/02/19 05:51:33;;;;;;;4.80;4.50;;;10.70;1.00;;;;;;5058410;28;20916;-78
2024/02/19 05:54:01;;;;;;;7.00;6.40;;;10.70;99.90;;;;;;5060798;28;20745;-78
2024/02/19 05:56:30;;;;;;;5.93;5.60;;;10.60;99.90;;;;;;5057172;28;21488;-80
2024/02/19 05:58:58;;;;;;;4.73;4.33;;;10.70;99.90;;;;;;5058038;28;20458;-79
2024/02/19 06:01:27;;;;;;;5.80;5.40;;;10.70;99.90;;;;;;5058590;28;20463;-78
2024/02/19 06:03:55;;;;;;;7.93;5.23;;;10.70;99.90;;;;;;5064756;28;20439;-79
2024/02/19 06:06:24;;;;;;;5.07;4.70;;;10.80;99.90;;;;;;5065097;28;20475;-78
2024/02/19 06:08:52;;;;;;;5.97;5.30;;;10.80;99.90;;;;;;5064389;28;20515;-79
2024/02/19 06:11:21;;;;;;;6.23;5.63;;;10.80;99.90;;;;;;5065537;28;20474;-80
2024/02/19 06:13:52;;;;;;;6.10;5.57;;;10.80;99.90;;;;;;5062015;28;20440;-79
2024/02/19 06:16:21;;;;;;;5.00;4.70;;;10.80;99.90;;;;;;5057266;28;20486;-80
2024/02/19 06:18:49;;;;;;;4.87;4.57;;;10.70;99.90;;;;;;5061619;28;20527;-80
2024/02/19 06:21:18;;;;;;;5.53;5.13;;;10.70;99.90;;;;;;5066279;28;21206;-80
2024/02/19 06:23:46;;;;;;;4.87;4.47;;;10.80;1.00;;;;;;5066314;28;20431;-80
2024/02/19 06:26:14;;;;;;;4.60;4.30;;;10.80;1.00;;;;;;5059860;28;21439;-80
2024/02/19 06:28:43;;;;;;;4.43;4.03;;;10.80;1.00;;;;;;5062908;28;20462;-82
2024/02/19 06:31:13;;;;;;;3.60;3.47;;;10.70;99.90;;;;;;5074804;28;20221;-79
2024/02/19 06:33:41;;;;;;;3.80;3.60;;;10.70;99.90;;;;;;5062877;28;20471;-79
2024/02/19 06:36:09;;;;;;;4.47;4.07;;;10.70;99.90;;;;;;5063265;28;20533;-81
2024/02/19 06:38:37;;;;;;;5.33;3.80;;;10.80;99.90;;;;;;5063756;28;20447;-79
2024/02/19 06:41:05;;;;;;;4.03;3.73;;;10.80;99.90;;;;;;5058176;28;20477;-80
2024/02/19 06:43:33;;;;;;;3.57;3.30;;;10.70;76.80;;;;;;5062543;28;20530;-79
2024/02/19 06:46:02;;;;;;;4.63;3.30;;;10.60;53.90;;;;;;5061560;28;20459;-81
2024/02/19 06:48:32;;;;;;;3.87;3.57;;;10.60;80.70;;;;;;5060812;28;21047;-77
2024/02/19 06:51:00;;;;;;;3.40;3.17;;;10.60;97.90;;;;;;5062864;28;20468;-80
2024/02/19 06:53:29;;;;;;;3.60;3.40;;;10.50;99.90;;;;;;5059891;28;20530;-79
2024/02/19 06:55:58;;;;;;;3.37;3.07;;;10.50;78.20;;;;;;5070580;28;20427;-79
2024/02/19 06:58:26;;;;;;;5.00;3.80;;;10.60;99.90;;;;;;5068731;28;21074;-82
2024/02/19 07:00:54;;;;;;;3.97;3.67;;;10.50;91.90;;;;;;5068506;28;20827;-78
2024/02/19 07:03:23;;;;;;;3.63;3.30;;;10.50;94.90;;;;;;5064986;28;20814;-80
2024/02/19 07:05:52;;;;;;;3.87;3.43;;;10.60;53.50;;;;;;5065218;28;20987;-80
2024/02/19 07:08:21;;;;;;;4.93;3.80;;;10.60;37.80;;;;;;5063172;28;20471;-80
2024/02/19 07:10:49;;;;;;;4.17;3.90;;;10.50;1.00;;;;;;5070986;28;20550;-81
2024/02/19 07:13:17;;;;;;;3.97;3.67;;;10.50;1.00;;;;;;5066407;28;20454;-79
2024/02/19 07:15:45;;;;;;;3.83;3.53;;;10.50;1.00;;;;;;5068386;28;20960;-81
2024/02/19 07:18:14;;;;;;;3.10;2.90;;;10.60;1.00;;;;;;5069697;28;20549;-77
2024/02/19 07:20:42;;;;;;;2.90;2.70;;;10.60;1.00;;;;;;5069355;28;20820;-77
2024/02/19 07:23:12;;;;;;;2.60;2.50;;;10.60;1.00;;;;;;5067003;28;20451;-81
2024/02/19 07:25:40;;;;;;;2.80;2.70;;;10.60;1.00;;;;;;5069204;28;20462;-80
2024/02/19 07:28:08;;;;;;;2.60;2.30;;;10.70;1.00;;;;;;5071205;28;20493;-82
2024/02/19 07:30:37;;;;;;;2.67;2.57;;;10.60;1.00;;;;;;5068184;28;20475;-81
2024/02/19 07:33:06;;;;;;;2.40;2.30;;;10.60;1.00;;;;;;5067569;28;20443;-78
2024/02/19 07:35:34;;;;;;;2.30;2.20;;;10.60;1.00;;;;;;5070858;28;20467;-82
2024/02/19 07:38:02;;;;;;;2.40;2.30;;;10.50;1.00;;;;;;5066378;28;20447;-81
2024/02/19 07:40:32;;;;;;;3.10;3.00;;;10.50;1.00;;;;;;5069711;28;20580;-84
2024/02/19 07:43:03;;;;;;;3.20;2.50;;;10.60;1.00;;;;;;5066666;28;20461;-78
2024/02/19 07:45:31;;;;;;;3.73;2.63;;;10.60;1.00;;;;;;5070280;28;20455;-81
2024/02/19 07:48:00;;;;;;;2.70;2.60;;;10.60;1.00;;;;;;5063622;28;20563;-78
2024/02/19 07:50:28;;;;;;;2.60;2.40;;;10.60;1.00;;;;;;5066070;28;20482;-77
2024/02/19 07:52:57;;;;;;;2.50;2.40;;;10.70;1.00;;;;;;5069106;28;20485;-78
2024/02/19 07:55:25;;;;;;;2.67;2.47;;;10.70;1.00;;;;;;5061755;28;20467;-79
2024/02/19 07:57:55;;;;;;;2.70;2.50;;;10.70;1.00;;;;;;5067817;28;20969;-82
2024/02/19 08:00:24;;;;;;;2.80;2.60;;;10.90;1.00;;;;;;5068172;28;20483;-81
2024/02/19 08:02:52;;;;;;;2.33;2.13;;;11.10;1.00;;;;;;5065482;28;20447;-80
2024/02/19 08:05:20;;;;;;;2.60;2.40;;;11.40;1.00;;;;;;5069304;28;20470;-81
2024/02/19 08:07:48;;;;;;;2.53;2.30;;;11.50;1.00;;;;;;5067809;28;21008;-78
2024/02/19 08:10:17;;;;;;;2.40;2.30;;;11.50;1.00;;;;;;5066432;28;20463;-79
2024/02/19 08:12:45;;;;;;;3.30;3.00;;;11.60;1.00;;;;;;5068692;28;20448;-80
2024/02/19 08:15:15;;;;;;;4.10;2.40;;;11.50;1.00;;;;;;5068613;28;20496;-79
2024/02/19 08:17:43;;;;;;;2.20;2.03;;;11.50;1.00;;;;;;5070098;28;20471;-81
2024/02/19 08:20:11;;;;;;;1.93;1.80;;;11.50;1.00;;;;;;5065163;28;21038;-78
2024/02/19 08:22:39;;;;;;;2.80;1.80;;;11.40;99.90;;;;;;5063993;28;20461;-79
2024/02/19 08:25:12;;;;;;;2.27;2.17;;;11.40;99.90;;;;;;5064373;28;20969;-78
2024/02/19 08:27:40;;;;;;;2.40;2.30;;;11.40;99.90;;;;;;5061184;28;20487;-79
2024/02/19 08:30:09;;;;;;;2.27;2.07;;;11.40;99.90;;;;;;5067442;28;20793;-79
2024/02/19 08:32:39;;;;;;;2.77;2.57;;;11.30;99.90;;;;;;5063813;28;20447;-79
2024/02/19 08:35:07;;;;;;;2.20;2.00;;;11.10;99.90;;;;;;5064390;28;20444;-81
2024/02/19 08:37:36;;;;;;;2.30;2.20;;;11.10;99.90;;;;;;5063950;28;21116;-79
2024/02/19 08:40:05;;;;;;;2.97;2.77;;;11.20;99.90;;;;;;5062707;28;20562;-77
2024/02/19 08:42:35;;;;;;;3.37;2.20;;;11.20;99.90;;;;;;5060215;28;20484;-80
2024/02/19 08:45:03;;;;;;;2.10;2.00;;;11.20;99.90;;;;;;5060698;28;20498;-79
2024/02/19 08:47:32;;;;;;;2.00;1.90;;;11.20;99.90;;;;;;5065348;28;20555;-78
2024/02/19 08:50:02;;;;;;;2.10;2.00;;;11.20;99.90;;;;;;5060170;28;20471;-80
2024/02/19 08:52:30;;;;;;;2.00;1.90;;;11.20;99.90;;;;;;5063484;28;20440;-78
2024/02/19 08:54:58;;;;;;;8.00;2.10;;;11.20;99.90;;;;;;5063671;28;20455;-77
2024/02/19 08:57:27;;;;;;;3.63;2.37;;;11.20;99.90;;;;;;5063188;28;20444;-77
2024/02/19 08:59:55;;;;;;;4.80;2.57;;;11.20;99.90;;;;;;5061771;28;20463;-79
2024/02/19 09:02:24;;;;;;;2.13;1.93;;;11.10;99.90;;;;;;5062790;28;20459;-77
2024/02/19 09:04:52;;;;;;;1.80;1.70;;;11.10;99.90;;;;;;5061923;28;20458;-78
2024/02/19 09:07:23;;;;;;;5.17;2.80;;;11.10;99.90;;;;;;5062816;28;20453;-77
2024/02/19 09:09:52;;;;;;;3.17;1.67;;;11.00;99.90;;;;;;5065234;28;20558;-79
2024/02/19 09:12:21;;;;;;;2.73;2.00;;;11.00;99.90;;;;;;5059280;28;20498;-78
2024/02/19 09:14:50;;;;;;;1.90;1.80;;;11.10;99.90;;;;;;5066139;28;20450;-80
2024/02/19 09:17:18;;;;;;;2.40;2.20;;;11.10;99.90;;;;;;5063967;28;20451;-81
2024/02/19 09:19:46;;;;;;;1.97;1.87;;;11.20;99.90;;;;;;5057960;28;20447;-81
2024/02/19 09:22:15;;;;;;;3.20;1.93;;;11.20;99.90;;;;;;5066627;28;20451;-80
2024/02/19 09:24:47;;;;;;;3.40;2.33;;;11.10;99.90;;;;;;5061208;28;20959;-79
2024/02/19 09:27:16;;;;;;;3.37;2.50;;;11.10;99.90;;;;;;5067807;28;20447;-77
2024/02/19 09:29:45;;;;;;;1.97;1.80;;;11.20;99.90;;;;;;5062864;28;20511;-77
2024/02/19 09:32:13;;;;;;;2.20;2.10;;;11.10;99.90;;;;;;5061058;28;21015;-80
2024/02/19 09:34:42;;;;;;;2.90;2.23;;;11.10;99.90;;;;;;5061221;28;20455;-79
2024/02/19 09:37:10;;;;;;;6.20;2.27;;;11.20;99.90;;;;;;5061701;28;20692;-78
2024/02/19 09:39:39;;;;;;;1.60;1.60;;;11.20;99.90;;;;;;5061558;28;20451;-78
2024/02/19 09:42:10;;;;;;;2.10;1.90;;;11.20;99.90;;;;;;5062933;28;21032;-79
2024/02/19 09:44:38;;;;;;;3.37;2.00;;;11.10;99.90;;;;;;5063279;28;20447;-78
2024/02/19 09:47:07;;;;;;;2.30;2.00;;;11.10;99.90;;;;;;5062942;28;20452;-79
2024/02/19 09:49:36;;;;;;;2.13;2.03;;;11.20;99.90;;;;;;5067457;28;20976;-78
2024/02/19 09:52:11;;;;;;;1.80;1.70;;;11.20;99.90;;;;;;5060901;28;20439;-79
2024/02/19 09:54:40;;;;;;;1.70;1.60;;;11.20;99.90;;;;;;5058559;28;21047;-79
2024/02/19 09:57:10;;;;;;;4.50;1.67;;;11.20;99.90;;;;;;5064310;28;20479;-79
2024/02/19 09:59:40;;;;;;;2.13;1.70;;;11.30;99.90;;;;;;5065646;28;21028;-79
2024/02/19 10:02:09;;;;;;;1.93;1.83;;;11.30;99.90;;;;;;5062704;28;20862;-80
2024/02/19 10:04:37;;;;;;;4.53;1.80;;;11.30;99.90;;;;;;5064143;28;20439;-83
2024/02/19 10:07:06;;;;;;;3.23;1.60;;;11.30;99.90;;;;;;5065817;28;20972;-79
2024/02/19 10:09:36;;;;;;;2.50;2.07;;;11.20;99.90;;;;;;5061190;28;20483;-80
2024/02/19 10:12:05;;;;;;;2.93;1.90;;;11.30;99.90;;;;;;5061969;28;20440;-79
2024/02/19 10:14:34;;;;;;;1.90;1.80;;;11.30;99.90;;;;;;5063026;28;20435;-79
2024/02/19 10:17:05;;;;;;;1.83;1.73;;;11.30;99.90;;;;;;5063684;28;20450;-79
2024/02/19 10:19:33;;;;;;;2.47;1.70;;;11.20;99.90;;;;;;5062917;28;20467;-78
2024/02/19 10:22:01;;;;;;;3.83;2.00;;;11.20;99.90;;;;;;5059838;28;20956;-79
2024/02/19 10:24:30;;;;;;;2.43;2.23;;;11.10;99.90;;;;;;5058541;28;20555;-80
2024/02/19 10:26:59;;;;;;;3.00;2.10;;;11.10;99.90;;;;;;5063900;28;20570;-80
2024/02/19 10:29:27;;;;;;;2.10;2.00;;;11.30;99.90;;;;;;5060898;28;20471;-80
2024/02/19 10:31:57;;;;;;;2.83;2.20;;;11.20;99.90;;;;;;5061771;28;20482;-78
2024/02/19 10:34:25;;;;;;;1.90;1.80;;;11.20;99.90;;;;;;5055469;28;20452;-79
2024/02/19 10:36:53;;;;;;;2.60;1.63;;;11.30;99.90;;;;;;5061393;28;20940;-82
2024/02/19 10:39:22;;;;;;;2.20;2.00;;;11.20;99.90;;;;;;5059079;28;20459;-80
2024/02/19 10:41:51;;;;;;;1.60;1.50;;;11.20;99.90;;;;;;5059803;28;20475;-82
2024/02/19 10:44:19;;;;;;;1.90;1.80;;;11.20;99.90;;;;;;5062050;28;20478;-81
2024/02/19 10:46:47;;;;;;;2.00;1.80;;;11.20;99.90;;;;;;5061683;28;20458;-79
2024/02/19 10:49:19;;;;;;;2.00;1.80;;;11.20;99.90;;;;;;5060789;28;20565;-78
2024/02/19 10:51:48;;;;;;;4.10;1.70;;;11.20;99.90;;;;;;5061128;28;20469;-79
2024/02/19 10:54:18;;;;;;;2.00;1.90;;;11.30;99.90;;;;;;5061735;28;20865;-82
2024/02/19 10:56:46;;;;;;;3.30;2.13;;;11.30;99.90;;;;;;5063215;28;20824;-80
2024/02/19 10:59:15;;;;;;;1.70;1.60;;;11.20;99.90;;;;;;5062756;28;20458;-80
2024/02/19 11:01:46;;;;;;;2.30;1.73;;;11.10;99.90;;;;;;5059629;28;20478;-80
2024/02/19 11:04:23;;;;;;;1.80;1.70;;;11.20;99.90;;;;;;5059343;28;20447;-79
2024/02/19 11:06:54;;;;;;;4.50;2.13;;;11.20;99.90;;;;;;5060058;28;20443;-86
2024/02/19 11:09:25;;;;;;;3.60;2.53;;;11.30;99.90;;;;;;5062012;28;20485;-79
2024/02/19 11:11:58;;;;;;;3.37;2.10;;;11.40;99.90;;;;;;5060511;28;20478;-79
2024/02/19 11:14:29;;;;;;;3.80;1.93;;;11.40;99.90;;;;;;5059554;28;20824;-80
2024/02/19 11:16:58;;;;;;;5.03;2.50;;;11.50;99.90;;;;;;5063023;28;20459;-78
2024/02/19 11:19:28;;;;;;;3.17;2.33;;;11.60;99.90;;;;;;5064031;28;20470;-79
2024/02/19 11:22:04;;;;;;;2.57;2.37;;;11.70;99.90;;;;;;5059052;28;20458;-80
2024/02/19 11:24:33;;;;;;;2.20;2.10;;;12.00;99.90;;;;;;5059892;28;20968;-81
2024/02/19 11:27:04;;;;;;;2.00;1.90;;;12.60;99.90;;;;;;5059012;28;20451;-80
2024/02/19 11:29:33;;;;;;;3.50;2.37;;;13.60;99.90;;;;;;5060549;28;21016;-80
2024/02/19 11:32:18;;;;;;;2.20;2.00;;;14.80;99.90;;;;;;5059611;28;20451;-82
2024/02/19 11:34:51;;;;;;;2.73;2.30;;;15.70;99.90;;;;;;5058700;28;20959;-80
2024/02/19 11:37:20;;;;;;;2.27;2.00;;;18.30;99.90;;;;;;5058195;28;20467;-77
2024/02/19 11:39:48;;;;;;;3.30;2.43;;;17.80;99.90;;;;;;5061122;28;20497;-82
2024/02/19 11:42:17;;;;;;;2.13;1.93;;;16.70;99.90;;;;;;5064014;28;20455;-81
2024/02/19 11:44:47;;;;;;;2.23;1.90;;;15.80;99.90;;;;;;5063320;28;20542;-80
2024/02/19 11:47:16;;;;;;;3.50;2.40;;;15.10;99.90;;;;;;5061972;28;20512;-79
2024/02/19 11:49:47;;;;;;;2.37;1.80;;;14.40;99.90;;;;;;5060129;28;20483;-78
2024/02/19 11:52:17;;;;;;;5.70;2.30;;;13.80;99.90;;;;;;5064289;28;20447;-80
2024/02/19 11:54:52;;;;;;;5.50;2.43;;;13.50;99.90;;;;;;5064307;28;20450;-78
2024/02/19 11:57:22;;;;;;;2.20;2.00;;;13.40;99.90;;;;;;5062490;28;20477;-78
2024/02/19 11:59:54;;;;;;;1.90;1.70;;;13.20;99.90;;;;;;5063629;28;20468;-78
2024/02/19 12:02:23;;;;;;;1.60;1.50;;;13.00;99.90;;;;;;5063758;28;20454;-80
2024/02/19 12:04:52;;;;;;;2.40;2.00;;;12.80;99.90;;;;;;5062347;28;20486;-82
2024/02/19 12:07:22;;;;;;;3.10;2.20;;;12.70;99.90;;;;;;5064478;28;20488;-79
2024/02/19 12:09:51;;;;;;;2.10;1.90;;;12.60;99.90;;;;;;5060974;28;20528;-79
2024/02/19 12:12:21;;;;;;;5.67;2.20;;;12.40;99.90;;;;;;5061996;28;20463;-78
2024/02/19 12:14:49;;;;;;;1.90;1.80;;;12.40;99.90;;;;;;5061870;28;20547;-81
2024/02/19 12:17:17;;;;;;;2.13;1.87;;;12.30;99.90;;;;;;5062027;28;20483;-85
2024/02/19 12:19:46;;;;;;;1.70;1.60;;;12.30;99.90;;;;;;5063355;28;20449;-82
2024/02/19 12:22:15;;;;;;;2.50;1.70;;;12.30;99.90;;;;;;5065220;28;20550;-78
2024/02/19 12:24:45;;;;;;;3.80;1.60;;;12.20;99.90;;;;;;5063131;28;20444;-80
2024/02/19 12:27:14;;;;;;;2.53;1.90;;;12.30;99.90;;;;;;5064476;28;20456;-78
2024/02/19 12:29:42;;;;;;;1.80;1.70;;;12.20;99.90;;;;;;5065922;28;20550;-81
2024/02/19 12:32:10;;;;;;;2.73;1.60;;;12.10;99.90;;;;;;5065785;28;20948;-80
2024/02/19 12:34:39;;;;;;;1.70;1.60;;;12.00;99.90;;;;;;5066179;28;20964;-83
2024/02/19 12:37:08;;;;;;;1.80;1.60;;;12.10;99.90;;;;;;5063718;28;20461;-78
2024/02/19 12:39:36;;;;;;;5.13;2.20;;;12.00;99.90;;;;;;5065017;28;20460;-81
2024/02/19 12:42:08;;;;;;;3.00;1.90;;;12.00;99.90;;;;;;5063367;28;20534;-80
2024/02/19 12:44:38;;;;;;;2.10;1.90;;;12.00;99.90;;;;;;5063145;28;20479;-79
2024/02/19 12:47:07;;;;;;;2.73;2.10;;;12.00;99.90;;;;;;5069376;28;20497;-81
2024/02/19 12:49:35;;;;;;;1.70;1.60;;;12.20;99.90;;;;;;5067325;28;20448;-79
2024/02/19 12:52:09;;;;;;;3.43;1.80;;;12.30;99.90;;;;;;5063183;28;20538;-79
2024/02/19 12:54:41;;;;;;;2.87;2.10;;;12.40;99.90;;;;;;5065146;28;21051;-80
2024/02/19 12:57:13;;;;;;;4.50;2.00;;;12.50;99.90;;;;;;5066348;28;20455;-78
2024/02/19 12:59:41;;;;;;;4.30;1.90;;;12.60;99.90;;;;;;5066109;28;20527;-82